sensor_id;sensor_type;location;lat;lon;timestamp;P1;durP1;ratioP1;P2;durP2;ratioP2
52590;SDS011;38483;42.620;25.394;2023-03-24T00:00:26;17.70;;;11.80;;
52590;SDS011;38483;42.620;25.394;2023-03-24T00:02:53;20.23;;;12.93;;
52590;SDS011;38483;42.620;25.394;2023-03-24T00:05:22;16.37;;;12.17;;
52590;SDS011;38483;42.620;25.394;2023-03-24T00:07:49;17.87;;;11.93;;
52590;SDS011;38483;42.620;25.394;2023-03-24T00:10:19;17.00;;;12.63;;
52590;SDS011;38483;42.620;25.394;2023-03-24T00:12:48;18.57;;;12.77;;
52590;SDS011;38483;42.620;25.394;2023-03-24T00:15:19;17.67;;;12.47;;
52590;SDS011;38483;42.620;25.394;2023-03-24T00:17:47;17.20;;;11.63;;
52590;SDS011;38483;42.620;25.394;2023-03-24T00:20:19;20.83;;;12.67;;
52590;SDS011;38483;42.620;25.394;2023-03-24T00:22:50;17.77;;;11.40;;
52590;SDS011;38483;42.620;25.394;2023-03-24T00:25:24;20.23;;;12.63;;
52590;SDS011;38483;42.620;25.394;2023-03-24T00:27:55;17.90;;;12.30;;
52590;SDS011;38483;42.620;25.394;2023-03-24T00:30:23;18.63;;;11.93;;
52590;SDS011;38483;42.620;25.394;2023-03-24T00:32:52;18.03;;;11.60;;
52590;SDS011;38483;42.620;25.394;2023-03-24T00:35:19;21.27;;;12.63;;
52590;SDS011;38483;42.620;25.394;2023-03-24T00:37:47;18.03;;;13.23;;
52590;SDS011;38483;42.620;25.394;2023-03-24T00:40:18;19.10;;;11.53;;
52590;SDS011;38483;42.620;25.394;2023-03-24T00:42:47;17.97;;;11.57;;
52590;SDS011;38483;42.620;25.394;2023-03-24T00:45:16;17.90;;;11.67;;
52590;SDS011;38483;42.620;25.394;2023-03-24T00:47:46;16.33;;;10.97;;
52590;SDS011;38483;42.620;25.394;2023-03-24T00:50:16;16.80;;;11.40;;
52590;SDS011;38483;42.620;25.394;2023-03-24T00:52:46;19.80;;;12.43;;
52590;SDS011;38483;42.620;25.394;2023-03-24T00:55:15;18.13;;;11.87;;
52590;SDS011;38483;42.620;25.394;2023-03-24T00:57:44;17.83;;;13.17;;
52590;SDS011;38483;42.620;25.394;2023-03-24T01:00:20;17.63;;;13.57;;
52590;SDS011;38483;42.620;25.394;2023-03-24T01:02:52;22.40;;;12.47;;
52590;SDS011;38483;42.620;25.394;2023-03-24T01:05:21;21.23;;;13.63;;
52590;SDS011;38483;42.620;25.394;2023-03-24T01:07:51;23.17;;;14.73;;
52590;SDS011;38483;42.620;25.394;2023-03-24T01:10:19;20.20;;;14.70;;
52590;SDS011;38483;42.620;25.394;2023-03-24T01:12:53;20.80;;;14.67;;
52590;SDS011;38483;42.620;25.394;2023-03-24T01:15:22;22.30;;;14.87;;
52590;SDS011;38483;42.620;25.394;2023-03-24T01:17:52;18.63;;;13.50;;
52590;SDS011;38483;42.620;25.394;2023-03-24T01:20:20;20.23;;;14.03;;
52590;SDS011;38483;42.620;25.394;2023-03-24T01:22:49;20.57;;;13.27;;
52590;SDS011;38483;42.620;25.394;2023-03-24T01:25:19;21.80;;;13.67;;
52590;SDS011;38483;42.620;25.394;2023-03-24T01:27:47;21.20;;;13.17;;
52590;SDS011;38483;42.620;25.394;2023-03-24T01:30:17;18.50;;;13.20;;
52590;SDS011;38483;42.620;25.394;2023-03-24T01:32:49;20.73;;;13.03;;
52590;SDS011;38483;42.620;25.394;2023-03-24T01:35:18;21.03;;;13.53;;
52590;SDS011;38483;42.620;25.394;2023-03-24T01:37:46;19.10;;;11.73;;
52590;SDS011;38483;42.620;25.394;2023-03-24T01:40:16;17.90;;;12.83;;
52590;SDS011;38483;42.620;25.394;2023-03-24T01:42:47;20.30;;;13.17;;
52590;SDS011;38483;42.620;25.394;2023-03-24T01:51:10;23.57;;;16.33;;
52590;SDS011;38483;42.620;25.394;2023-03-24T01:56:40;29.30;;;17.10;;
52590;SDS011;38483;42.620;25.394;2023-03-24T01:59:12;22.63;;;16.17;;
52590;SDS011;38483;42.620;25.394;2023-03-24T02:01:58;22.03;;;15.63;;
52590;SDS011;38483;42.620;25.394;2023-03-24T02:04:40;20.17;;;14.83;;
52590;SDS011;38483;42.620;25.394;2023-03-24T02:07:31;21.17;;;14.53;;
52590;SDS011;38483;42.620;25.394;2023-03-24T02:10:15;21.20;;;14.57;;
52590;SDS011;38483;42.620;25.394;2023-03-24T02:12:44;22.23;;;14.07;;
52590;SDS011;38483;42.620;25.394;2023-03-24T02:15:14;22.47;;;15.40;;
52590;SDS011;38483;42.620;25.394;2023-03-24T02:51:07;21.53;;;13.67;;
52590;SDS011;38483;42.620;25.394;2023-03-24T02:59:59;26.77;;;16.80;;
52590;SDS011;38483;42.620;25.394;2023-03-24T03:03:08;22.53;;;15.30;;
52590;SDS011;38483;42.620;25.394;2023-03-24T03:05:41;19.97;;;13.63;;
52590;SDS011;38483;42.620;25.394;2023-03-24T03:08:14;17.23;;;12.07;;
52590;SDS011;38483;42.620;25.394;2023-03-24T03:10:45;17.67;;;12.17;;
52590;SDS011;38483;42.620;25.394;2023-03-24T03:13:36;18.90;;;12.67;;
52590;SDS011;38483;42.620;25.394;2023-03-24T03:16:24;18.20;;;12.33;;
52590;SDS011;38483;42.620;25.394;2023-03-24T03:19:10;21.20;;;14.03;;
52590;SDS011;38483;42.620;25.394;2023-03-24T03:21:44;17.97;;;13.20;;
52590;SDS011;38483;42.620;25.394;2023-03-24T03:24:17;17.93;;;13.27;;
52590;SDS011;38483;42.620;25.394;2023-03-24T03:26:57;18.50;;;13.23;;
52590;SDS011;38483;42.620;25.394;2023-03-24T03:29:30;16.83;;;13.07;;
52590;SDS011;38483;42.620;25.394;2023-03-24T03:32:02;22.37;;;13.90;;
52590;SDS011;38483;42.620;25.394;2023-03-24T03:34:39;21.20;;;13.73;;
52590;SDS011;38483;42.620;25.394;2023-03-24T03:37:28;21.17;;;14.20;;
52590;SDS011;38483;42.620;25.394;2023-03-24T03:40:23;22.97;;;14.67;;
52590;SDS011;38483;42.620;25.394;2023-03-24T03:43:06;23.47;;;15.33;;
52590;SDS011;38483;42.620;25.394;2023-03-24T03:45:33;23.93;;;16.07;;
52590;SDS011;38483;42.620;25.394;2023-03-24T03:48:00;27.43;;;17.23;;
52590;SDS011;38483;42.620;25.394;2023-03-24T03:50:28;23.23;;;15.13;;
52590;SDS011;38483;42.620;25.394;2023-03-24T03:52:59;21.73;;;15.27;;
52590;SDS011;38483;42.620;25.394;2023-03-24T03:55:26;21.83;;;14.77;;
52590;SDS011;38483;42.620;25.394;2023-03-24T03:57:54;24.90;;;15.03;;
52590;SDS011;38483;42.620;25.394;2023-03-24T04:00:28;23.90;;;14.90;;
52590;SDS011;38483;42.620;25.394;2023-03-24T04:11:38;21.73;;;12.83;;
52590;SDS011;38483;42.620;25.394;2023-03-24T04:18:36;24.10;;;15.13;;
52590;SDS011;38483;42.620;25.394;2023-03-24T04:24:14;23.43;;;16.13;;
52590;SDS011;38483;42.620;25.394;2023-03-24T04:32:58;20.67;;;13.80;;
52590;SDS011;38483;42.620;25.394;2023-03-24T04:35:38;22.00;;;14.73;;
52590;SDS011;38483;42.620;25.394;2023-03-24T04:38:17;23.53;;;15.20;;
52590;SDS011;38483;42.620;25.394;2023-03-24T04:40:56;22.00;;;15.50;;
52590;SDS011;38483;42.620;25.394;2023-03-24T04:43:27;21.67;;;14.13;;
52590;SDS011;38483;42.620;25.394;2023-03-24T04:46:04;19.63;;;13.60;;
52590;SDS011;38483;42.620;25.394;2023-03-24T04:48:54;21.30;;;13.83;;
52590;SDS011;38483;42.620;25.394;2023-03-24T04:51:33;21.53;;;14.63;;
52590;SDS011;38483;42.620;25.394;2023-03-24T04:54:08;20.17;;;13.40;;
52590;SDS011;38483;42.620;25.394;2023-03-24T04:59:28;24.17;;;12.70;;
52590;SDS011;38483;42.620;25.394;2023-03-24T05:01:57;22.00;;;13.00;;
52590;SDS011;38483;42.620;25.394;2023-03-24T05:04:34;18.00;;;11.67;;
52590;SDS011;38483;42.620;25.394;2023-03-24T05:07:23;17.33;;;12.33;;
52590;SDS011;38483;42.620;25.394;2023-03-24T05:09:54;16.60;;;11.83;;
52590;SDS011;38483;42.620;25.394;2023-03-24T05:12:22;16.37;;;11.47;;
52590;SDS011;38483;42.620;25.394;2023-03-24T05:15:18;16.60;;;12.13;;
52590;SDS011;38483;42.620;25.394;2023-03-24T05:17:49;22.83;;;12.43;;
52590;SDS011;38483;42.620;25.394;2023-03-24T05:20:22;18.20;;;12.40;;
52590;SDS011;38483;42.620;25.394;2023-03-24T05:22:50;22.30;;;11.30;;
52590;SDS011;38483;42.620;25.394;2023-03-24T05:25:17;19.80;;;12.33;;
52590;SDS011;38483;42.620;25.394;2023-03-24T05:27:45;28.70;;;13.00;;
52590;SDS011;38483;42.620;25.394;2023-03-24T05:30:22;18.03;;;12.77;;
52590;SDS011;38483;42.620;25.394;2023-03-24T05:32:53;22.23;;;12.87;;
52590;SDS011;38483;42.620;25.394;2023-03-24T05:35:21;19.23;;;13.33;;
52590;SDS011;38483;42.620;25.394;2023-03-24T05:37:48;22.83;;;13.33;;
52590;SDS011;38483;42.620;25.394;2023-03-24T05:40:16;23.63;;;14.77;;
52590;SDS011;38483;42.620;25.394;2023-03-24T05:42:52;25.13;;;14.20;;
52590;SDS011;38483;42.620;25.394;2023-03-24T05:45:22;20.03;;;13.90;;
52590;SDS011;38483;42.620;25.394;2023-03-24T05:47:51;18.17;;;13.10;;
52590;SDS011;38483;42.620;25.394;2023-03-24T05:50:25;19.60;;;13.40;;
52590;SDS011;38483;42.620;25.394;2023-03-24T05:52:52;21.50;;;13.07;;
52590;SDS011;38483;42.620;25.394;2023-03-24T05:55:48;23.77;;;13.73;;
52590;SDS011;38483;42.620;25.394;2023-03-24T05:58:41;18.00;;;12.37;;
52590;SDS011;38483;42.620;25.394;2023-03-24T06:01:10;17.27;;;12.37;;
52590;SDS011;38483;42.620;25.394;2023-03-24T06:03:38;18.97;;;12.80;;
52590;SDS011;38483;42.620;25.394;2023-03-24T06:06:10;18.00;;;13.03;;
52590;SDS011;38483;42.620;25.394;2023-03-24T06:08:42;19.40;;;12.93;;
52590;SDS011;38483;42.620;25.394;2023-03-24T06:11:11;22.20;;;13.63;;
52590;SDS011;38483;42.620;25.394;2023-03-24T06:13:49;18.80;;;13.27;;
52590;SDS011;38483;42.620;25.394;2023-03-24T06:16:16;19.60;;;12.53;;
52590;SDS011;38483;42.620;25.394;2023-03-24T06:18:54;21.17;;;14.07;;
52590;SDS011;38483;42.620;25.394;2023-03-24T06:21:53;20.40;;;14.20;;
52590;SDS011;38483;42.620;25.394;2023-03-24T06:24:26;23.90;;;15.63;;
52590;SDS011;38483;42.620;25.394;2023-03-24T06:27:00;25.10;;;16.50;;
52590;SDS011;38483;42.620;25.394;2023-03-24T06:29:32;24.50;;;16.13;;
52590;SDS011;38483;42.620;25.394;2023-03-24T06:32:00;25.73;;;16.10;;
52590;SDS011;38483;42.620;25.394;2023-03-24T06:34:29;22.33;;;14.77;;
52590;SDS011;38483;42.620;25.394;2023-03-24T06:37:12;22.73;;;16.30;;
52590;SDS011;38483;42.620;25.394;2023-03-24T06:39:40;28.03;;;15.43;;
52590;SDS011;38483;42.620;25.394;2023-03-24T06:42:09;20.90;;;15.20;;
52590;SDS011;38483;42.620;25.394;2023-03-24T06:44:36;18.53;;;13.93;;
52590;SDS011;38483;42.620;25.394;2023-03-24T06:47:04;21.93;;;13.77;;
52590;SDS011;38483;42.620;25.394;2023-03-24T06:49:32;20.13;;;13.90;;
52590;SDS011;38483;42.620;25.394;2023-03-24T06:52:00;20.73;;;13.80;;
52590;SDS011;38483;42.620;25.394;2023-03-24T06:54:28;19.40;;;13.47;;
52590;SDS011;38483;42.620;25.394;2023-03-24T06:56:56;26.90;;;16.50;;
52590;SDS011;38483;42.620;25.394;2023-03-24T06:59:27;28.63;;;15.77;;
52590;SDS011;38483;42.620;25.394;2023-03-24T07:01:54;22.23;;;14.03;;
52590;SDS011;38483;42.620;25.394;2023-03-24T07:04:24;23.00;;;14.50;;
52590;SDS011;38483;42.620;25.394;2023-03-24T07:06:59;22.60;;;14.03;;
52590;SDS011;38483;42.620;25.394;2023-03-24T07:09:54;23.63;;;15.47;;
52590;SDS011;38483;42.620;25.394;2023-03-24T07:12:22;19.90;;;13.83;;
52590;SDS011;38483;42.620;25.394;2023-03-24T07:14:49;18.17;;;13.13;;
52590;SDS011;38483;42.620;25.394;2023-03-24T07:17:17;20.70;;;13.50;;
52590;SDS011;38483;42.620;25.394;2023-03-24T07:20:17;17.80;;;12.33;;
52590;SDS011;38483;42.620;25.394;2023-03-24T07:22:50;18.23;;;12.40;;
52590;SDS011;38483;42.620;25.394;2023-03-24T07:25:35;15.90;;;11.73;;
52590;SDS011;38483;42.620;25.394;2023-03-24T07:28:12;17.87;;;11.70;;
52590;SDS011;38483;42.620;25.394;2023-03-24T07:30:39;17.67;;;13.10;;
52590;SDS011;38483;42.620;25.394;2023-03-24T07:33:18;19.47;;;13.37;;
52590;SDS011;38483;42.620;25.394;2023-03-24T07:35:45;19.77;;;13.50;;
52590;SDS011;38483;42.620;25.394;2023-03-24T07:38:13;25.27;;;13.60;;
52590;SDS011;38483;42.620;25.394;2023-03-24T07:40:40;20.27;;;12.80;;
52590;SDS011;38483;42.620;25.394;2023-03-24T07:43:07;19.47;;;13.03;;
52590;SDS011;38483;42.620;25.394;2023-03-24T07:45:58;18.80;;;11.27;;
52590;SDS011;38483;42.620;25.394;2023-03-24T07:48:27;17.77;;;11.77;;
52590;SDS011;38483;42.620;25.394;2023-03-24T07:50:54;17.77;;;11.30;;
52590;SDS011;38483;42.620;25.394;2023-03-24T07:54:00;11.33;;;8.40;;
52590;SDS011;38483;42.620;25.394;2023-03-24T07:56:35;11.80;;;8.60;;
52590;SDS011;38483;42.620;25.394;2023-03-24T07:59:04;13.77;;;9.77;;
52590;SDS011;38483;42.620;25.394;2023-03-24T08:01:42;15.53;;;9.47;;
52590;SDS011;38483;42.620;25.394;2023-03-24T08:04:12;13.17;;;9.73;;
52590;SDS011;38483;42.620;25.394;2023-03-24T08:07:00;14.97;;;9.77;;
52590;SDS011;38483;42.620;25.394;2023-03-24T08:09:28;12.03;;;8.87;;
52590;SDS011;38483;42.620;25.394;2023-03-24T08:11:55;11.43;;;7.47;;
52590;SDS011;38483;42.620;25.394;2023-03-24T08:14:24;10.27;;;8.07;;
52590;SDS011;38483;42.620;25.394;2023-03-24T08:16:51;11.87;;;8.97;;
52590;SDS011;38483;42.620;25.394;2023-03-24T08:19:18;12.80;;;8.97;;
52590;SDS011;38483;42.620;25.394;2023-03-24T08:21:46;13.37;;;10.27;;
52590;SDS011;38483;42.620;25.394;2023-03-24T08:24:13;13.03;;;9.83;;
52590;SDS011;38483;42.620;25.394;2023-03-24T08:26:39;24.53;;;10.53;;
52590;SDS011;38483;42.620;25.394;2023-03-24T08:29:08;17.20;;;10.87;;
52590;SDS011;38483;42.620;25.394;2023-03-24T08:31:35;13.67;;;10.37;;
52590;SDS011;38483;42.620;25.394;2023-03-24T08:34:03;15.00;;;10.90;;
52590;SDS011;38483;42.620;25.394;2023-03-24T08:36:32;17.57;;;9.73;;
52590;SDS011;38483;42.620;25.394;2023-03-24T08:38:59;14.33;;;9.90;;
52590;SDS011;38483;42.620;25.394;2023-03-24T08:41:27;20.33;;;11.63;;
52590;SDS011;38483;42.620;25.394;2023-03-24T08:44:01;14.47;;;10.07;;
52590;SDS011;38483;42.620;25.394;2023-03-24T08:46:32;15.57;;;9.17;;
52590;SDS011;38483;42.620;25.394;2023-03-24T08:48:59;22.13;;;10.57;;
52590;SDS011;38483;42.620;25.394;2023-03-24T08:51:28;17.13;;;9.17;;
52590;SDS011;38483;42.620;25.394;2023-03-24T08:53:55;10.00;;;7.40;;
52590;SDS011;38483;42.620;25.394;2023-03-24T08:56:22;14.93;;;7.60;;
52590;SDS011;38483;42.620;25.394;2023-03-24T08:58:49;9.37;;;6.77;;
52590;SDS011;38483;42.620;25.394;2023-03-24T09:01:19;12.67;;;7.83;;
52590;SDS011;38483;42.620;25.394;2023-03-24T09:03:48;11.67;;;7.40;;
52590;SDS011;38483;42.620;25.394;2023-03-24T09:06:17;8.80;;;7.13;;
52590;SDS011;38483;42.620;25.394;2023-03-24T09:08:44;12.80;;;7.80;;
52590;SDS011;38483;42.620;25.394;2023-03-24T09:11:17;11.20;;;7.23;;
52590;SDS011;38483;42.620;25.394;2023-03-24T09:13:45;9.83;;;7.07;;
52590;SDS011;38483;42.620;25.394;2023-03-24T09:16:13;12.60;;;7.03;;
52590;SDS011;38483;42.620;25.394;2023-03-24T09:18:40;8.53;;;6.30;;
52590;SDS011;38483;42.620;25.394;2023-03-24T09:21:07;8.87;;;6.07;;
52590;SDS011;38483;42.620;25.394;2023-03-24T09:23:35;8.97;;;6.70;;
52590;SDS011;38483;42.620;25.394;2023-03-24T09:26:02;8.23;;;6.20;;
52590;SDS011;38483;42.620;25.394;2023-03-24T09:28:30;8.70;;;5.47;;
52590;SDS011;38483;42.620;25.394;2023-03-24T09:30:57;8.63;;;7.20;;
52590;SDS011;38483;42.620;25.394;2023-03-24T09:33:26;7.73;;;6.07;;
52590;SDS011;38483;42.620;25.394;2023-03-24T09:35:55;7.87;;;6.07;;
52590;SDS011;38483;42.620;25.394;2023-03-24T09:39:06;8.37;;;6.33;;
52590;SDS011;38483;42.620;25.394;2023-03-24T09:41:34;6.43;;;5.60;;
52590;SDS011;38483;42.620;25.394;2023-03-24T09:44:03;11.13;;;7.40;;
52590;SDS011;38483;42.620;25.394;2023-03-24T09:46:42;11.30;;;6.73;;
52590;SDS011;38483;42.620;25.394;2023-03-24T09:49:20;8.07;;;5.90;;
52590;SDS011;38483;42.620;25.394;2023-03-24T09:51:51;7.93;;;6.10;;
52590;SDS011;38483;42.620;25.394;2023-03-24T09:54:34;9.40;;;5.90;;
52590;SDS011;38483;42.620;25.394;2023-03-24T09:57:35;8.03;;;5.80;;
52590;SDS011;38483;42.620;25.394;2023-03-24T10:02:46;12.33;;;5.17;;
52590;SDS011;38483;42.620;25.394;2023-03-24T10:05:20;7.87;;;5.47;;
52590;SDS011;38483;42.620;25.394;2023-03-24T10:08:11;7.57;;;4.90;;
52590;SDS011;38483;42.620;25.394;2023-03-24T10:13:20;5.83;;;5.07;;
52590;SDS011;38483;42.620;25.394;2023-03-24T10:15:58;7.23;;;5.97;;
52590;SDS011;38483;42.620;25.394;2023-03-24T10:21:39;9.17;;;5.10;;
52590;SDS011;38483;42.620;25.394;2023-03-24T10:24:37;7.83;;;4.97;;
52590;SDS011;38483;42.620;25.394;2023-03-24T10:29:59;6.67;;;5.07;;
52590;SDS011;38483;42.620;25.394;2023-03-24T10:32:41;6.00;;;4.00;;
52590;SDS011;38483;42.620;25.394;2023-03-24T10:35:17;4.57;;;3.90;;
52590;SDS011;38483;42.620;25.394;2023-03-24T10:37:49;5.47;;;3.97;;
52590;SDS011;38483;42.620;25.394;2023-03-24T10:40:18;6.53;;;4.13;;
52590;SDS011;38483;42.620;25.394;2023-03-24T10:42:50;5.73;;;4.10;;
52590;SDS011;38483;42.620;25.394;2023-03-24T10:45:35;7.17;;;4.23;;
52590;SDS011;38483;42.620;25.394;2023-03-24T10:48:06;5.73;;;4.37;;
52590;SDS011;38483;42.620;25.394;2023-03-24T10:50:35;6.37;;;3.80;;
52590;SDS011;38483;42.620;25.394;2023-03-24T10:53:15;8.37;;;4.77;;
52590;SDS011;38483;42.620;25.394;2023-03-24T10:55:44;5.97;;;4.23;;
52590;SDS011;38483;42.620;25.394;2023-03-24T10:58:25;5.77;;;3.80;;
52590;SDS011;38483;42.620;25.394;2023-03-24T11:00:56;7.40;;;4.40;;
52590;SDS011;38483;42.620;25.394;2023-03-24T11:03:28;5.33;;;4.30;;
52590;SDS011;38483;42.620;25.394;2023-03-24T11:06:01;5.43;;;4.30;;
52590;SDS011;38483;42.620;25.394;2023-03-24T11:08:32;5.90;;;4.50;;
52590;SDS011;38483;42.620;25.394;2023-03-24T11:11:39;5.43;;;4.60;;
52590;SDS011;38483;42.620;25.394;2023-03-24T11:14:01;5.30;;;4.20;;
52590;SDS011;38483;42.620;25.394;2023-03-24T11:16:30;6.97;;;4.30;;
52590;SDS011;38483;42.620;25.394;2023-03-24T11:19:05;6.27;;;4.27;;
52590;SDS011;38483;42.620;25.394;2023-03-24T11:21:47;6.10;;;4.70;;
52590;SDS011;38483;42.620;25.394;2023-03-24T11:24:16;5.57;;;4.50;;
52590;SDS011;38483;42.620;25.394;2023-03-24T11:26:46;5.37;;;4.13;;
52590;SDS011;38483;42.620;25.394;2023-03-24T11:29:21;5.83;;;4.33;;
52590;SDS011;38483;42.620;25.394;2023-03-24T11:31:58;4.93;;;4.47;;
52590;SDS011;38483;42.620;25.394;2023-03-24T11:34:31;3.97;;;3.30;;
52590;SDS011;38483;42.620;25.394;2023-03-24T11:37:11;5.70;;;3.77;;
52590;SDS011;38483;42.620;25.394;2023-03-24T11:39:41;4.33;;;3.40;;
52590;SDS011;38483;42.620;25.394;2023-03-24T11:47:09;4.77;;;4.03;;
52590;SDS011;38483;42.620;25.394;2023-03-24T11:49:41;5.17;;;3.07;;
52590;SDS011;38483;42.620;25.394;2023-03-24T11:52:25;5.10;;;3.80;;
52590;SDS011;38483;42.620;25.394;2023-03-24T11:54:57;3.50;;;3.20;;
52590;SDS011;38483;42.620;25.394;2023-03-24T11:57:32;4.70;;;3.33;;
52590;SDS011;38483;42.620;25.394;2023-03-24T12:05:50;6.03;;;3.43;;
52590;SDS011;38483;42.620;25.394;2023-03-24T12:11:05;7.10;;;4.07;;
52590;SDS011;38483;42.620;25.394;2023-03-24T12:13:42;5.53;;;3.40;;
52590;SDS011;38483;42.620;25.394;2023-03-24T12:16:27;4.23;;;3.50;;
52590;SDS011;38483;42.620;25.394;2023-03-24T12:21:47;5.70;;;3.93;;
52590;SDS011;38483;42.620;25.394;2023-03-24T12:27:20;5.97;;;4.63;;
52590;SDS011;38483;42.620;25.394;2023-03-24T12:30:28;5.90;;;4.60;;
52590;SDS011;38483;42.620;25.394;2023-03-24T12:33:47;5.37;;;4.10;;
52590;SDS011;38483;42.620;25.394;2023-03-24T12:50:14;7.73;;;5.50;;
52590;SDS011;38483;42.620;25.394;2023-03-24T12:52:57;5.90;;;4.97;;
52590;SDS011;38483;42.620;25.394;2023-03-24T13:03:40;8.20;;;5.23;;
52590;SDS011;38483;42.620;25.394;2023-03-24T13:06:36;7.07;;;5.67;;
52590;SDS011;38483;42.620;25.394;2023-03-24T13:12:22;8.63;;;5.60;;
52590;SDS011;38483;42.620;25.394;2023-03-24T13:14:59;9.13;;;5.63;;
52590;SDS011;38483;42.620;25.394;2023-03-24T13:17:30;6.97;;;4.80;;
52590;SDS011;38483;42.620;25.394;2023-03-24T13:20:02;8.67;;;5.87;;
52590;SDS011;38483;42.620;25.394;2023-03-24T13:22:33;6.67;;;5.33;;
52590;SDS011;38483;42.620;25.394;2023-03-24T13:25:03;7.87;;;5.43;;
52590;SDS011;38483;42.620;25.394;2023-03-24T13:27:46;6.00;;;5.40;;
52590;SDS011;38483;42.620;25.394;2023-03-24T13:30:35;6.47;;;5.40;;
52590;SDS011;38483;42.620;25.394;2023-03-24T13:33:10;6.60;;;4.90;;
52590;SDS011;38483;42.620;25.394;2023-03-24T13:38:45;10.43;;;5.43;;
52590;SDS011;38483;42.620;25.394;2023-03-24T13:41:19;8.30;;;5.70;;
52590;SDS011;38483;42.620;25.394;2023-03-24T13:44:01;5.87;;;4.80;;
52590;SDS011;38483;42.620;25.394;2023-03-24T13:47:11;6.93;;;5.40;;
52590;SDS011;38483;42.620;25.394;2023-03-24T13:49:36;9.63;;;6.07;;
52590;SDS011;38483;42.620;25.394;2023-03-24T13:52:05;8.57;;;5.73;;
52590;SDS011;38483;42.620;25.394;2023-03-24T13:54:45;6.30;;;5.40;;
52590;SDS011;38483;42.620;25.394;2023-03-24T13:57:16;8.43;;;5.77;;
52590;SDS011;38483;42.620;25.394;2023-03-24T14:12:20;7.60;;;5.17;;
52590;SDS011;38483;42.620;25.394;2023-03-24T14:15:01;7.17;;;4.80;;
52590;SDS011;38483;42.620;25.394;2023-03-24T14:17:41;11.10;;;5.00;;
52590;SDS011;38483;42.620;25.394;2023-03-24T14:20:10;6.13;;;4.60;;
52590;SDS011;38483;42.620;25.394;2023-03-24T14:22:40;6.10;;;4.70;;
52590;SDS011;38483;42.620;25.394;2023-03-24T14:27:44;6.40;;;4.90;;
52590;SDS011;38483;42.620;25.394;2023-03-24T14:32:53;6.93;;;4.70;;
52590;SDS011;38483;42.620;25.394;2023-03-24T14:35:24;9.70;;;4.60;;
52590;SDS011;38483;42.620;25.394;2023-03-24T14:38:01;9.63;;;4.80;;
52590;SDS011;38483;42.620;25.394;2023-03-24T14:40:56;8.30;;;5.13;;
52590;SDS011;38483;42.620;25.394;2023-03-24T14:51:27;7.70;;;4.63;;
52590;SDS011;38483;42.620;25.394;2023-03-24T14:54:10;7.13;;;4.30;;
52590;SDS011;38483;42.620;25.394;2023-03-24T14:56:51;7.00;;;4.87;;
52590;SDS011;38483;42.620;25.394;2023-03-24T15:02:46;11.10;;;4.23;;
52590;SDS011;38483;42.620;25.394;2023-03-24T15:05:20;5.17;;;4.43;;
52590;SDS011;38483;42.620;25.394;2023-03-24T15:10:34;7.90;;;4.70;;
52590;SDS011;38483;42.620;25.394;2023-03-24T15:15:53;5.03;;;4.33;;
52590;SDS011;38483;42.620;25.394;2023-03-24T15:18:20;10.37;;;4.90;;
52590;SDS011;38483;42.620;25.394;2023-03-24T15:20:48;7.10;;;3.83;;
52590;SDS011;38483;42.620;25.394;2023-03-24T15:23:17;6.30;;;4.00;;
52590;SDS011;38483;42.620;25.394;2023-03-24T15:25:46;6.17;;;4.20;;
52590;SDS011;38483;42.620;25.394;2023-03-24T15:28:20;7.03;;;3.80;;
52590;SDS011;38483;42.620;25.394;2023-03-24T15:30:54;6.90;;;4.60;;
52590;SDS011;38483;42.620;25.394;2023-03-24T15:33:22;8.67;;;5.07;;
52590;SDS011;38483;42.620;25.394;2023-03-24T15:35:53;11.17;;;5.70;;
52590;SDS011;38483;42.620;25.394;2023-03-24T15:38:29;10.37;;;5.40;;
52590;SDS011;38483;42.620;25.394;2023-03-24T15:43:24;7.13;;;5.00;;
52590;SDS011;38483;42.620;25.394;2023-03-24T15:45:53;7.97;;;4.17;;
52590;SDS011;38483;42.620;25.394;2023-03-24T15:48:36;10.70;;;5.37;;
52590;SDS011;38483;42.620;25.394;2023-03-24T15:51:07;7.03;;;4.70;;
52590;SDS011;38483;42.620;25.394;2023-03-24T15:58:54;9.30;;;4.40;;
52590;SDS011;38483;42.620;25.394;2023-03-24T16:01:32;8.00;;;4.30;;
52590;SDS011;38483;42.620;25.394;2023-03-24T16:04:04;8.77;;;5.10;;
52590;SDS011;38483;42.620;25.394;2023-03-24T16:06:44;5.83;;;4.50;;
52590;SDS011;38483;42.620;25.394;2023-03-24T16:09:20;6.40;;;4.73;;
52590;SDS011;38483;42.620;25.394;2023-03-24T16:11:48;5.60;;;4.93;;
52590;SDS011;38483;42.620;25.394;2023-03-24T16:14:19;6.77;;;5.37;;
52590;SDS011;38483;42.620;25.394;2023-03-24T16:16:54;7.47;;;5.47;;
52590;SDS011;38483;42.620;25.394;2023-03-24T16:19:23;5.50;;;4.87;;
52590;SDS011;38483;42.620;25.394;2023-03-24T16:21:50;9.70;;;4.60;;
52590;SDS011;38483;42.620;25.394;2023-03-24T16:24:17;6.93;;;5.50;;
52590;SDS011;38483;42.620;25.394;2023-03-24T16:26:44;8.40;;;5.40;;
52590;SDS011;38483;42.620;25.394;2023-03-24T16:29:21;8.60;;;4.77;;
52590;SDS011;38483;42.620;25.394;2023-03-24T16:31:49;7.50;;;5.60;;
52590;SDS011;38483;42.620;25.394;2023-03-24T16:34:22;8.37;;;5.07;;
52590;SDS011;38483;42.620;25.394;2023-03-24T16:36:50;8.97;;;5.63;;
52590;SDS011;38483;42.620;25.394;2023-03-24T16:39:19;8.60;;;5.90;;
52590;SDS011;38483;42.620;25.394;2023-03-24T16:41:51;16.23;;;6.07;;
52590;SDS011;38483;42.620;25.394;2023-03-24T16:44:19;9.60;;;7.17;;
52590;SDS011;38483;42.620;25.394;2023-03-24T16:46:47;10.07;;;6.10;;
52590;SDS011;38483;42.620;25.394;2023-03-24T16:49:17;10.70;;;5.67;;
52590;SDS011;38483;42.620;25.394;2023-03-24T16:51:45;7.63;;;5.27;;
52590;SDS011;38483;42.620;25.394;2023-03-24T16:54:12;7.40;;;5.30;;
52590;SDS011;38483;42.620;25.394;2023-03-24T16:56:40;10.83;;;5.77;;
52590;SDS011;38483;42.620;25.394;2023-03-24T16:59:07;7.67;;;4.93;;
52590;SDS011;38483;42.620;25.394;2023-03-24T17:01:36;9.07;;;5.07;;
52590;SDS011;38483;42.620;25.394;2023-03-24T17:04:09;10.50;;;6.17;;
52590;SDS011;38483;42.620;25.394;2023-03-24T17:06:48;9.10;;;5.67;;
52590;SDS011;38483;42.620;25.394;2023-03-24T17:09:20;12.37;;;6.23;;
52590;SDS011;38483;42.620;25.394;2023-03-24T17:11:51;8.87;;;5.23;;
52590;SDS011;38483;42.620;25.394;2023-03-24T17:14:21;8.97;;;5.40;;
52590;SDS011;38483;42.620;25.394;2023-03-24T17:16:48;8.03;;;6.30;;
52590;SDS011;38483;42.620;25.394;2023-03-24T17:19:19;12.77;;;6.10;;
52590;SDS011;38483;42.620;25.394;2023-03-24T17:24:31;9.77;;;6.27;;
52590;SDS011;38483;42.620;25.394;2023-03-24T17:27:01;7.67;;;5.50;;
52590;SDS011;38483;42.620;25.394;2023-03-24T17:29:28;9.50;;;5.47;;
52590;SDS011;38483;42.620;25.394;2023-03-24T17:31:55;6.80;;;5.53;;
52590;SDS011;38483;42.620;25.394;2023-03-24T17:34:22;9.17;;;6.40;;
52590;SDS011;38483;42.620;25.394;2023-03-24T17:36:49;8.07;;;5.90;;
52590;SDS011;38483;42.620;25.394;2023-03-24T17:39:17;8.20;;;6.20;;
52590;SDS011;38483;42.620;25.394;2023-03-24T17:41:46;9.73;;;6.93;;
52590;SDS011;38483;42.620;25.394;2023-03-24T17:44:13;9.83;;;6.23;;
52590;SDS011;38483;42.620;25.394;2023-03-24T17:46:40;10.67;;;6.37;;
52590;SDS011;38483;42.620;25.394;2023-03-24T17:49:07;9.07;;;6.53;;
52590;SDS011;38483;42.620;25.394;2023-03-24T17:51:34;12.90;;;8.57;;
52590;SDS011;38483;42.620;25.394;2023-03-24T17:54:01;14.53;;;8.60;;